sensor_id;sensor_type;location;lat;lon;timestamp;P1;durP1;ratioP1;P2;durP2;ratioP2
11151;SDS011;5630;49.342;10.802;2022-10-16T00:00:52;4.73;;;1.90;;
11151;SDS011;5630;49.342;10.802;2022-10-16T00:03:17;2.87;;;1.57;;
11151;SDS011;5630;49.342;10.802;2022-10-16T00:05:43;7.00;;;2.03;;
11151;SDS011;5630;49.342;10.802;2022-10-16T00:08:10;2.37;;;1.70;;
11151;SDS011;5630;49.342;10.802;2022-10-16T00:10:36;4.77;;;1.83;;
11151;SDS011;5630;49.342;10.802;2022-10-16T00:13:03;2.20;;;1.67;;
11151;SDS011;5630;49.342;10.802;2022-10-16T00:15:29;7.67;;;1.70;;
11151;SDS011;5630;49.342;10.802;2022-10-16T00:17:55;3.10;;;1.90;;
11151;SDS011;5630;49.342;10.802;2022-10-16T00:20:21;3.43;;;1.83;;
11151;SDS011;5630;49.342;10.802;2022-10-16T00:22:46;9.57;;;1.60;;
11151;SDS011;5630;49.342;10.802;2022-10-16T00:25:12;6.80;;;2.17;;
11151;SDS011;5630;49.342;10.802;2022-10-16T00:27:37;3.53;;;1.93;;
11151;SDS011;5630;49.342;10.802;2022-10-16T00:30:03;7.33;;;2.10;;
11151;SDS011;5630;49.342;10.802;2022-10-16T00:32:29;10.50;;;2.00;;
11151;SDS011;5630;49.342;10.802;2022-10-16T00:34:55;3.77;;;1.90;;
11151;SDS011;5630;49.342;10.802;2022-10-16T00:37:20;6.23;;;2.00;;
11151;SDS011;5630;49.342;10.802;2022-10-16T00:39:46;3.30;;;1.80;;
11151;SDS011;5630;49.342;10.802;2022-10-16T00:42:15;3.80;;;1.70;;
11151;SDS011;5630;49.342;10.802;2022-10-16T00:44:43;6.47;;;2.00;;
11151;SDS011;5630;49.342;10.802;2022-10-16T00:47:19;6.33;;;1.77;;
11151;SDS011;5630;49.342;10.802;2022-10-16T00:50:13;2.23;;;1.60;;
11151;SDS011;5630;49.342;10.802;2022-10-16T00:52:53;5.40;;;1.90;;
11151;SDS011;5630;49.342;10.802;2022-10-16T00:55:20;4.03;;;1.83;;
11151;SDS011;5630;49.342;10.802;2022-10-16T00:57:47;4.90;;;1.97;;
11151;SDS011;5630;49.342;10.802;2022-10-16T01:00:15;3.07;;;1.77;;
11151;SDS011;5630;49.342;10.802;2022-10-16T01:02:44;5.70;;;2.17;;
11151;SDS011;5630;49.342;10.802;2022-10-16T01:05:16;10.67;;;2.07;;
11151;SDS011;5630;49.342;10.802;2022-10-16T01:10:35;2.30;;;1.80;;
11151;SDS011;5630;49.342;10.802;2022-10-16T01:13:03;6.33;;;2.03;;
11151;SDS011;5630;49.342;10.802;2022-10-16T01:15:34;4.27;;;1.97;;
11151;SDS011;5630;49.342;10.802;2022-10-16T01:18:11;5.13;;;2.00;;
11151;SDS011;5630;49.342;10.802;2022-10-16T01:20:54;6.70;;;1.90;;
11151;SDS011;5630;49.342;10.802;2022-10-16T01:26:19;5.57;;;2.03;;
11151;SDS011;5630;49.342;10.802;2022-10-16T01:28:52;6.13;;;1.90;;
11151;SDS011;5630;49.342;10.802;2022-10-16T01:31:22;4.83;;;2.00;;
11151;SDS011;5630;49.342;10.802;2022-10-16T01:34:10;6.10;;;1.93;;
11151;SDS011;5630;49.342;10.802;2022-10-16T01:36:42;6.33;;;2.23;;
11151;SDS011;5630;49.342;10.802;2022-10-16T01:39:13;3.50;;;2.00;;
11151;SDS011;5630;49.342;10.802;2022-10-16T01:41:45;8.53;;;2.23;;
11151;SDS011;5630;49.342;10.802;2022-10-16T01:44:19;3.53;;;1.93;;
11151;SDS011;5630;49.342;10.802;2022-10-16T01:46:50;5.40;;;2.20;;
11151;SDS011;5630;49.342;10.802;2022-10-16T01:49:18;10.73;;;2.10;;
11151;SDS011;5630;49.342;10.802;2022-10-16T01:51:47;6.13;;;2.10;;
11151;SDS011;5630;49.342;10.802;2022-10-16T01:54:16;6.63;;;2.27;;
11151;SDS011;5630;49.342;10.802;2022-10-16T01:56:45;8.47;;;2.23;;
11151;SDS011;5630;49.342;10.802;2022-10-16T01:59:13;2.87;;;1.80;;
11151;SDS011;5630;49.342;10.802;2022-10-16T02:01:42;4.23;;;1.80;;
11151;SDS011;5630;49.342;10.802;2022-10-16T02:04:25;2.97;;;1.93;;
11151;SDS011;5630;49.342;10.802;2022-10-16T02:07:10;6.40;;;2.10;;
11151;SDS011;5630;49.342;10.802;2022-10-16T02:09:37;9.83;;;2.20;;
11151;SDS011;5630;49.342;10.802;2022-10-16T02:12:06;4.10;;;2.00;;
11151;SDS011;5630;49.342;10.802;2022-10-16T02:14:39;5.40;;;2.10;;
11151;SDS011;5630;49.342;10.802;2022-10-16T02:17:12;2.87;;;1.90;;
11151;SDS011;5630;49.342;10.802;2022-10-16T02:19:39;4.77;;;1.87;;
11151;SDS011;5630;49.342;10.802;2022-10-16T02:22:06;6.33;;;1.90;;
11151;SDS011;5630;49.342;10.802;2022-10-16T02:24:43;5.93;;;2.20;;
11151;SDS011;5630;49.342;10.802;2022-10-16T02:27:26;2.97;;;1.73;;
11151;SDS011;5630;49.342;10.802;2022-10-16T02:30:08;5.63;;;1.80;;
11151;SDS011;5630;49.342;10.802;2022-10-16T02:32:50;5.93;;;1.70;;
11151;SDS011;5630;49.342;10.802;2022-10-16T02:35:17;4.87;;;1.70;;
11151;SDS011;5630;49.342;10.802;2022-10-16T02:37:45;1.93;;;1.53;;
11151;SDS011;5630;49.342;10.802;2022-10-16T02:40:12;3.97;;;1.77;;
11151;SDS011;5630;49.342;10.802;2022-10-16T02:42:39;4.27;;;1.77;;
11151;SDS011;5630;49.342;10.802;2022-10-16T02:45:06;4.03;;;1.60;;
11151;SDS011;5630;49.342;10.802;2022-10-16T02:47:33;4.67;;;1.80;;
11151;SDS011;5630;49.342;10.802;2022-10-16T02:49:59;4.63;;;1.90;;
11151;SDS011;5630;49.342;10.802;2022-10-16T02:52:24;2.80;;;1.77;;
11151;SDS011;5630;49.342;10.802;2022-10-16T02:54:50;5.47;;;1.77;;
11151;SDS011;5630;49.342;10.802;2022-10-16T02:57:16;8.63;;;1.80;;
11151;SDS011;5630;49.342;10.802;2022-10-16T02:59:42;5.00;;;1.80;;
11151;SDS011;5630;49.342;10.802;2022-10-16T03:02:09;4.87;;;1.70;;
11151;SDS011;5630;49.342;10.802;2022-10-16T03:04:34;4.10;;;1.50;;
11151;SDS011;5630;49.342;10.802;2022-10-16T03:07:00;4.27;;;1.70;;
11151;SDS011;5630;49.342;10.802;2022-10-16T03:09:26;2.00;;;1.50;;
11151;SDS011;5630;49.342;10.802;2022-10-16T03:11:51;3.23;;;1.80;;
11151;SDS011;5630;49.342;10.802;2022-10-16T03:14:17;4.90;;;1.80;;
11151;SDS011;5630;49.342;10.802;2022-10-16T03:16:42;6.40;;;1.90;;
11151;SDS011;5630;49.342;10.802;2022-10-16T03:19:08;3.63;;;1.90;;
11151;SDS011;5630;49.342;10.802;2022-10-16T03:21:33;4.13;;;1.80;;
11151;SDS011;5630;49.342;10.802;2022-10-16T03:23:59;2.37;;;1.53;;
11151;SDS011;5630;49.342;10.802;2022-10-16T03:26:25;4.93;;;1.80;;
11151;SDS011;5630;49.342;10.802;2022-10-16T03:28:50;4.40;;;1.90;;
11151;SDS011;5630;49.342;10.802;2022-10-16T03:31:16;9.27;;;2.00;;
11151;SDS011;5630;49.342;10.802;2022-10-16T03:33:41;5.83;;;1.80;;
11151;SDS011;5630;49.342;10.802;2022-10-16T03:36:07;6.77;;;2.00;;
11151;SDS011;5630;49.342;10.802;2022-10-16T03:38:33;8.57;;;1.90;;
11151;SDS011;5630;49.342;10.802;2022-10-16T03:40:58;4.17;;;2.40;;
11151;SDS011;5630;49.342;10.802;2022-10-16T03:43:24;2.47;;;1.80;;
11151;SDS011;5630;49.342;10.802;2022-10-16T03:45:50;4.57;;;2.17;;
11151;SDS011;5630;49.342;10.802;2022-10-16T03:48:16;5.00;;;2.20;;
11151;SDS011;5630;49.342;10.802;2022-10-16T03:50:42;7.33;;;2.37;;
11151;SDS011;5630;49.342;10.802;2022-10-16T03:53:08;6.43;;;2.00;;
11151;SDS011;5630;49.342;10.802;2022-10-16T03:55:34;10.00;;;2.40;;
11151;SDS011;5630;49.342;10.802;2022-10-16T03:58:00;7.37;;;2.13;;
11151;SDS011;5630;49.342;10.802;2022-10-16T04:00:25;4.50;;;2.10;;
11151;SDS011;5630;49.342;10.802;2022-10-16T04:02:51;8.93;;;2.10;;
11151;SDS011;5630;49.342;10.802;2022-10-16T04:05:17;4.73;;;2.20;;
11151;SDS011;5630;49.342;10.802;2022-10-16T04:07:43;3.03;;;1.90;;
11151;SDS011;5630;49.342;10.802;2022-10-16T04:10:08;4.23;;;2.03;;
11151;SDS011;5630;49.342;10.802;2022-10-16T04:12:34;3.43;;;2.23;;
11151;SDS011;5630;49.342;10.802;2022-10-16T04:15:00;7.67;;;2.67;;
11151;SDS011;5630;49.342;10.802;2022-10-16T04:17:25;8.53;;;2.00;;
11151;SDS011;5630;49.342;10.802;2022-10-16T04:19:51;5.50;;;2.27;;
11151;SDS011;5630;49.342;10.802;2022-10-16T04:22:16;2.60;;;2.20;;
11151;SDS011;5630;49.342;10.802;2022-10-16T04:24:42;2.73;;;2.10;;
11151;SDS011;5630;49.342;10.802;2022-10-16T04:27:07;4.60;;;2.30;;
11151;SDS011;5630;49.342;10.802;2022-10-16T04:29:33;4.43;;;2.40;;
11151;SDS011;5630;49.342;10.802;2022-10-16T04:31:58;2.77;;;1.80;;
11151;SDS011;5630;49.342;10.802;2022-10-16T04:34:24;4.97;;;1.90;;
11151;SDS011;5630;49.342;10.802;2022-10-16T04:36:49;6.00;;;1.90;;
11151;SDS011;5630;49.342;10.802;2022-10-16T04:39:15;4.87;;;2.10;;
11151;SDS011;5630;49.342;10.802;2022-10-16T04:41:41;4.80;;;2.03;;
11151;SDS011;5630;49.342;10.802;2022-10-16T04:44:07;4.53;;;2.50;;
11151;SDS011;5630;49.342;10.802;2022-10-16T04:46:33;4.70;;;2.20;;
11151;SDS011;5630;49.342;10.802;2022-10-16T04:48:58;3.50;;;2.00;;
11151;SDS011;5630;49.342;10.802;2022-10-16T04:51:24;3.30;;;2.00;;
11151;SDS011;5630;49.342;10.802;2022-10-16T04:53:50;5.53;;;1.90;;
11151;SDS011;5630;49.342;10.802;2022-10-16T04:56:16;2.97;;;1.90;;
11151;SDS011;5630;49.342;10.802;2022-10-16T04:58:42;5.23;;;2.00;;
11151;SDS011;5630;49.342;10.802;2022-10-16T05:01:07;4.83;;;2.23;;
11151;SDS011;5630;49.342;10.802;2022-10-16T05:03:33;3.50;;;1.93;;
11151;SDS011;5630;49.342;10.802;2022-10-16T05:05:58;6.53;;;1.97;;
11151;SDS011;5630;49.342;10.802;2022-10-16T05:08:24;3.23;;;1.80;;
11151;SDS011;5630;49.342;10.802;2022-10-16T05:10:50;6.00;;;1.80;;
11151;SDS011;5630;49.342;10.802;2022-10-16T05:13:15;3.70;;;2.10;;
11151;SDS011;5630;49.342;10.802;2022-10-16T05:15:41;2.20;;;2.00;;
11151;SDS011;5630;49.342;10.802;2022-10-16T05:18:06;8.27;;;2.03;;
11151;SDS011;5630;49.342;10.802;2022-10-16T05:20:33;2.90;;;1.83;;
11151;SDS011;5630;49.342;10.802;2022-10-16T05:22:58;2.57;;;1.97;;
11151;SDS011;5630;49.342;10.802;2022-10-16T05:25:24;5.33;;;2.00;;
11151;SDS011;5630;49.342;10.802;2022-10-16T05:27:49;5.93;;;2.10;;
11151;SDS011;5630;49.342;10.802;2022-10-16T05:30:16;6.43;;;2.17;;
11151;SDS011;5630;49.342;10.802;2022-10-16T05:32:45;7.73;;;2.30;;
11151;SDS011;5630;49.342;10.802;2022-10-16T05:35:12;4.10;;;2.40;;
11151;SDS011;5630;49.342;10.802;2022-10-16T05:37:38;2.23;;;2.03;;
11151;SDS011;5630;49.342;10.802;2022-10-16T05:40:03;5.00;;;2.40;;
11151;SDS011;5630;49.342;10.802;2022-10-16T05:42:29;7.07;;;2.10;;
11151;SDS011;5630;49.342;10.802;2022-10-16T05:44:55;4.00;;;2.17;;
11151;SDS011;5630;49.342;10.802;2022-10-16T05:47:21;3.87;;;2.17;;
11151;SDS011;5630;49.342;10.802;2022-10-16T05:49:46;6.03;;;2.10;;
11151;SDS011;5630;49.342;10.802;2022-10-16T05:52:12;4.90;;;2.03;;
11151;SDS011;5630;49.342;10.802;2022-10-16T05:54:37;4.20;;;2.30;;
11151;SDS011;5630;49.342;10.802;2022-10-16T05:57:03;2.77;;;1.90;;
11151;SDS011;5630;49.342;10.802;2022-10-16T05:59:30;2.40;;;2.20;;
11151;SDS011;5630;49.342;10.802;2022-10-16T06:01:56;7.63;;;2.00;;
11151;SDS011;5630;49.342;10.802;2022-10-16T06:04:22;2.97;;;1.97;;
11151;SDS011;5630;49.342;10.802;2022-10-16T06:06:47;3.03;;;2.10;;
11151;SDS011;5630;49.342;10.802;2022-10-16T06:09:13;4.20;;;2.10;;
11151;SDS011;5630;49.342;10.802;2022-10-16T06:11:39;2.57;;;1.90;;
11151;SDS011;5630;49.342;10.802;2022-10-16T06:14:04;5.13;;;2.20;;
11151;SDS011;5630;49.342;10.802;2022-10-16T06:16:32;8.27;;;2.20;;
11151;SDS011;5630;49.342;10.802;2022-10-16T06:19:01;6.53;;;2.07;;
11151;SDS011;5630;49.342;10.802;2022-10-16T06:21:30;3.73;;;2.10;;
11151;SDS011;5630;49.342;10.802;2022-10-16T06:23:56;2.77;;;1.83;;
11151;SDS011;5630;49.342;10.802;2022-10-16T06:26:24;6.93;;;2.37;;
11151;SDS011;5630;49.342;10.802;2022-10-16T06:28:51;4.83;;;2.20;;
11151;SDS011;5630;49.342;10.802;2022-10-16T06:31:18;4.33;;;2.00;;
11151;SDS011;5630;49.342;10.802;2022-10-16T06:33:44;5.93;;;2.00;;
11151;SDS011;5630;49.342;10.802;2022-10-16T06:36:14;6.47;;;2.07;;
11151;SDS011;5630;49.342;10.802;2022-10-16T06:38:41;5.00;;;2.20;;
11151;SDS011;5630;49.342;10.802;2022-10-16T06:41:09;5.03;;;2.20;;
11151;SDS011;5630;49.342;10.802;2022-10-16T06:43:37;4.50;;;2.30;;
11151;SDS011;5630;49.342;10.802;2022-10-16T06:46:04;5.57;;;2.27;;
11151;SDS011;5630;49.342;10.802;2022-10-16T06:48:30;4.23;;;2.27;;
11151;SDS011;5630;49.342;10.802;2022-10-16T06:51:00;5.93;;;2.43;;
11151;SDS011;5630;49.342;10.802;2022-10-16T06:53:37;4.17;;;2.17;;
11151;SDS011;5630;49.342;10.802;2022-10-16T06:56:08;10.13;;;2.40;;
11151;SDS011;5630;49.342;10.802;2022-10-16T06:58:41;9.97;;;2.67;;
11151;SDS011;5630;49.342;10.802;2022-10-16T07:01:08;2.93;;;2.13;;
11151;SDS011;5630;49.342;10.802;2022-10-16T07:03:37;7.60;;;2.10;;
11151;SDS011;5630;49.342;10.802;2022-10-16T07:06:05;3.60;;;2.33;;
11151;SDS011;5630;49.342;10.802;2022-10-16T07:08:35;4.53;;;2.20;;
11151;SDS011;5630;49.342;10.802;2022-10-16T07:11:07;5.43;;;2.33;;
11151;SDS011;5630;49.342;10.802;2022-10-16T07:13:35;4.03;;;2.50;;
11151;SDS011;5630;49.342;10.802;2022-10-16T07:16:06;3.60;;;2.43;;
11151;SDS011;5630;49.342;10.802;2022-10-16T07:18:35;3.00;;;2.17;;
11151;SDS011;5630;49.342;10.802;2022-10-16T07:21:05;3.73;;;2.40;;
11151;SDS011;5630;49.342;10.802;2022-10-16T07:23:32;3.70;;;2.30;;
11151;SDS011;5630;49.342;10.802;2022-10-16T07:25:57;3.40;;;2.53;;
11151;SDS011;5630;49.342;10.802;2022-10-16T07:28:23;6.03;;;2.30;;
11151;SDS011;5630;49.342;10.802;2022-10-16T07:30:48;5.10;;;2.30;;
11151;SDS011;5630;49.342;10.802;2022-10-16T07:33:14;5.33;;;2.57;;
11151;SDS011;5630;49.342;10.802;2022-10-16T07:35:49;6.10;;;2.40;;
11151;SDS011;5630;49.342;10.802;2022-10-16T07:38:16;3.87;;;2.50;;
11151;SDS011;5630;49.342;10.802;2022-10-16T07:40:41;4.20;;;2.40;;
11151;SDS011;5630;49.342;10.802;2022-10-16T07:43:07;5.90;;;2.20;;
11151;SDS011;5630;49.342;10.802;2022-10-16T07:45:32;3.17;;;2.00;;
11151;SDS011;5630;49.342;10.802;2022-10-16T07:47:58;3.57;;;2.37;;
11151;SDS011;5630;49.342;10.802;2022-10-16T07:50:23;4.17;;;2.40;;
11151;SDS011;5630;49.342;10.802;2022-10-16T07:52:49;6.90;;;2.67;;
11151;SDS011;5630;49.342;10.802;2022-10-16T07:55:14;5.03;;;2.30;;
11151;SDS011;5630;49.342;10.802;2022-10-16T07:57:40;5.80;;;2.43;;
11151;SDS011;5630;49.342;10.802;2022-10-16T08:00:06;2.50;;;2.30;;
11151;SDS011;5630;49.342;10.802;2022-10-16T08:02:32;6.33;;;2.40;;
11151;SDS011;5630;49.342;10.802;2022-10-16T08:04:57;5.73;;;2.40;;
11151;SDS011;5630;49.342;10.802;2022-10-16T08:07:23;3.07;;;2.47;;
11151;SDS011;5630;49.342;10.802;2022-10-16T08:09:49;4.00;;;2.30;;
11151;SDS011;5630;49.342;10.802;2022-10-16T08:12:16;3.73;;;2.37;;
11151;SDS011;5630;49.342;10.802;2022-10-16T08:14:42;3.43;;;2.23;;
11151;SDS011;5630;49.342;10.802;2022-10-16T08:17:07;7.37;;;2.37;;
11151;SDS011;5630;49.342;10.802;2022-10-16T08:19:33;4.83;;;2.13;;
11151;SDS011;5630;49.342;10.802;2022-10-16T08:21:59;2.27;;;2.00;;
11151;SDS011;5630;49.342;10.802;2022-10-16T08:24:25;4.00;;;2.13;;
11151;SDS011;5630;49.342;10.802;2022-10-16T08:26:53;2.30;;;2.10;;
11151;SDS011;5630;49.342;10.802;2022-10-16T08:29:19;3.13;;;1.93;;
11151;SDS011;5630;49.342;10.802;2022-10-16T08:31:44;5.87;;;2.67;;
11151;SDS011;5630;49.342;10.802;2022-10-16T08:34:10;6.77;;;2.37;;
11151;SDS011;5630;49.342;10.802;2022-10-16T08:36:36;4.50;;;2.50;;
11151;SDS011;5630;49.342;10.802;2022-10-16T08:39:01;9.93;;;2.73;;
11151;SDS011;5630;49.342;10.802;2022-10-16T08:44:09;3.70;;;2.50;;
11151;SDS011;5630;49.342;10.802;2022-10-16T08:49:27;6.80;;;2.63;;
11151;SDS011;5630;49.342;10.802;2022-10-16T08:51:52;4.97;;;2.30;;
11151;SDS011;5630;49.342;10.802;2022-10-16T08:54:34;5.97;;;2.47;;
11151;SDS011;5630;49.342;10.802;2022-10-16T08:57:24;7.67;;;2.50;;
11151;SDS011;5630;49.342;10.802;2022-10-16T08:59:51;7.43;;;2.50;;
11151;SDS011;5630;49.342;10.802;2022-10-16T09:13:11;4.60;;;2.20;;
11151;SDS011;5630;49.342;10.802;2022-10-16T09:21:31;4.20;;;2.07;;
11151;SDS011;5630;49.342;10.802;2022-10-16T09:24:13;4.60;;;2.03;;
11151;SDS011;5630;49.342;10.802;2022-10-16T09:26:43;4.53;;;2.10;;
11151;SDS011;5630;49.342;10.802;2022-10-16T09:29:11;2.70;;;1.80;;
11151;SDS011;5630;49.342;10.802;2022-10-16T09:31:38;2.77;;;2.20;;
11151;SDS011;5630;49.342;10.802;2022-10-16T09:34:04;2.50;;;2.00;;
11151;SDS011;5630;49.342;10.802;2022-10-16T09:36:36;3.93;;;1.90;;
11151;SDS011;5630;49.342;10.802;2022-10-16T09:39:07;8.00;;;2.20;;
11151;SDS011;5630;49.342;10.802;2022-10-16T09:41:38;4.37;;;2.23;;
11151;SDS011;5630;49.342;10.802;2022-10-16T09:44:28;4.80;;;2.03;;
11151;SDS011;5630;49.342;10.802;2022-10-16T09:47:04;3.40;;;1.90;;
11151;SDS011;5630;49.342;10.802;2022-10-16T09:49:36;1.90;;;1.70;;
11151;SDS011;5630;49.342;10.802;2022-10-16T09:52:03;3.57;;;2.17;;
11151;SDS011;5630;49.342;10.802;2022-10-16T09:54:30;4.40;;;2.20;;
11151;SDS011;5630;49.342;10.802;2022-10-16T09:57:04;2.13;;;1.90;;
11151;SDS011;5630;49.342;10.802;2022-10-16T09:59:45;5.17;;;1.93;;
11151;SDS011;5630;49.342;10.802;2022-10-16T10:02:15;4.83;;;2.17;;
11151;SDS011;5630;49.342;10.802;2022-10-16T10:04:45;4.13;;;1.87;;
11151;SDS011;5630;49.342;10.802;2022-10-16T10:07:20;2.23;;;1.80;;
11151;SDS011;5630;49.342;10.802;2022-10-16T10:09:50;2.63;;;1.63;;
11151;SDS011;5630;49.342;10.802;2022-10-16T10:12:17;8.47;;;2.10;;
11151;SDS011;5630;49.342;10.802;2022-10-16T10:14:53;5.70;;;2.00;;
11151;SDS011;5630;49.342;10.802;2022-10-16T10:17:26;2.40;;;1.90;;
11151;SDS011;5630;49.342;10.802;2022-10-16T10:20:00;5.97;;;2.00;;
11151;SDS011;5630;49.342;10.802;2022-10-16T10:22:43;4.97;;;2.00;;
11151;SDS011;5630;49.342;10.802;2022-10-16T10:36:04;6.07;;;2.13;;
11151;SDS011;5630;49.342;10.802;2022-10-16T10:38:58;2.83;;;1.90;;
11151;SDS011;5630;49.342;10.802;2022-10-16T10:44:12;2.77;;;2.00;;
11151;SDS011;5630;49.342;10.802;2022-10-16T10:46:56;5.40;;;2.20;;
11151;SDS011;5630;49.342;10.802;2022-10-16T10:49:42;7.67;;;1.90;;
11151;SDS011;5630;49.342;10.802;2022-10-16T10:52:41;8.33;;;2.10;;
11151;SDS011;5630;49.342;10.802;2022-10-16T11:06:10;4.33;;;1.90;;
11151;SDS011;5630;49.342;10.802;2022-10-16T11:08:50;3.53;;;2.10;;
11151;SDS011;5630;49.342;10.802;2022-10-16T11:11:25;4.43;;;2.00;;
11151;SDS011;5630;49.342;10.802;2022-10-16T11:14:02;5.37;;;1.80;;
11151;SDS011;5630;49.342;10.802;2022-10-16T11:16:30;3.93;;;1.83;;
11151;SDS011;5630;49.342;10.802;2022-10-16T11:19:17;2.97;;;1.80;;
11151;SDS011;5630;49.342;10.802;2022-10-16T11:27:38;4.57;;;2.03;;
11151;SDS011;5630;49.342;10.802;2022-10-16T11:30:15;7.17;;;1.80;;
11151;SDS011;5630;49.342;10.802;2022-10-16T11:35:38;2.10;;;1.70;;
11151;SDS011;5630;49.342;10.802;2022-10-16T11:41:27;2.97;;;1.70;;
11151;SDS011;5630;49.342;10.802;2022-10-16T11:49:44;3.70;;;1.83;;
11151;SDS011;5630;49.342;10.802;2022-10-16T11:52:17;4.60;;;1.80;;
11151;SDS011;5630;49.342;10.802;2022-10-16T11:55:13;5.60;;;1.83;;
11151;SDS011;5630;49.342;10.802;2022-10-16T11:57:44;4.40;;;1.80;;
11151;SDS011;5630;49.342;10.802;2022-10-16T12:00:22;6.23;;;1.60;;
11151;SDS011;5630;49.342;10.802;2022-10-16T12:05:46;4.37;;;1.60;;
11151;SDS011;5630;49.342;10.802;2022-10-16T12:08:23;6.13;;;1.70;;
11151;SDS011;5630;49.342;10.802;2022-10-16T12:10:49;2.50;;;1.70;;
11151;SDS011;5630;49.342;10.802;2022-10-16T12:13:28;2.90;;;1.60;;
11151;SDS011;5630;49.342;10.802;2022-10-16T12:16:07;2.37;;;1.33;;
11151;SDS011;5630;49.342;10.802;2022-10-16T12:18:45;2.27;;;1.57;;
11151;SDS011;5630;49.342;10.802;2022-10-16T12:21:13;2.57;;;1.60;;
11151;SDS011;5630;49.342;10.802;2022-10-16T12:23:47;4.33;;;1.90;;
11151;SDS011;5630;49.342;10.802;2022-10-16T12:26:22;2.10;;;1.33;;
11151;SDS011;5630;49.342;10.802;2022-10-16T12:28:53;4.57;;;1.47;;
11151;SDS011;5630;49.342;10.802;2022-10-16T12:31:20;3.70;;;1.30;;
11151;SDS011;5630;49.342;10.802;2022-10-16T12:34:00;4.10;;;1.87;;
11151;SDS011;5630;49.342;10.802;2022-10-16T12:36:29;2.07;;;1.67;;
11151;SDS011;5630;49.342;10.802;2022-10-16T12:38:59;4.53;;;1.60;;
11151;SDS011;5630;49.342;10.802;2022-10-16T12:41:26;2.60;;;1.70;;
11151;SDS011;5630;49.342;10.802;2022-10-16T12:43:54;2.00;;;1.60;;
11151;SDS011;5630;49.342;10.802;2022-10-16T12:46:22;2.10;;;1.60;;
11151;SDS011;5630;49.342;10.802;2022-10-16T12:51:41;2.30;;;1.57;;
11151;SDS011;5630;49.342;10.802;2022-10-16T13:10:11;4.50;;;1.67;;
11151;SDS011;5630;49.342;10.802;2022-10-16T13:13:00;4.10;;;1.70;;
11151;SDS011;5630;49.342;10.802;2022-10-16T13:16:13;5.90;;;2.00;;
11151;SDS011;5630;49.342;10.802;2022-10-16T13:24:13;2.90;;;1.70;;
11151;SDS011;5630;49.342;10.802;2022-10-16T13:26:44;1.70;;;1.57;;
11151;SDS011;5630;49.342;10.802;2022-10-16T13:29:28;5.03;;;1.70;;
11151;SDS011;5630;49.342;10.802;2022-10-16T13:31:55;4.17;;;1.83;;
11151;SDS011;5630;49.342;10.802;2022-10-16T13:34:21;3.60;;;1.57;;
11151;SDS011;5630;49.342;10.802;2022-10-16T13:36:49;1.63;;;1.40;;
11151;SDS011;5630;49.342;10.802;2022-10-16T13:39:23;4.23;;;1.67;;
11151;SDS011;5630;49.342;10.802;2022-10-16T13:42:00;4.13;;;1.50;;
11151;SDS011;5630;49.342;10.802;2022-10-16T13:44:44;8.10;;;1.90;;
11151;SDS011;5630;49.342;10.802;2022-10-16T13:47:15;2.70;;;1.50;;
11151;SDS011;5630;49.342;10.802;2022-10-16T13:49:42;1.97;;;1.50;;
11151;SDS011;5630;49.342;10.802;2022-10-16T13:52:15;5.93;;;1.83;;
11151;SDS011;5630;49.342;10.802;2022-10-16T13:54:43;4.77;;;1.67;;
11151;SDS011;5630;49.342;10.802;2022-10-16T13:57:12;3.77;;;1.60;;
11151;SDS011;5630;49.342;10.802;2022-10-16T13:59:42;8.87;;;1.93;;
11151;SDS011;5630;49.342;10.802;2022-10-16T14:04:54;5.17;;;1.50;;
11151;SDS011;5630;49.342;10.802;2022-10-16T14:07:23;3.27;;;1.57;;
11151;SDS011;5630;49.342;10.802;2022-10-16T14:09:51;3.13;;;1.40;;
11151;SDS011;5630;49.342;10.802;2022-10-16T14:12:18;3.93;;;1.50;;
11151;SDS011;5630;49.342;10.802;2022-10-16T14:14:45;5.10;;;1.70;;
11151;SDS011;5630;49.342;10.802;2022-10-16T14:17:15;5.13;;;1.73;;
11151;SDS011;5630;49.342;10.802;2022-10-16T14:19:47;5.93;;;1.80;;
11151;SDS011;5630;49.342;10.802;2022-10-16T14:22:24;3.27;;;1.50;;
11151;SDS011;5630;49.342;10.802;2022-10-16T14:25:23;4.20;;;1.70;;
11151;SDS011;5630;49.342;10.802;2022-10-16T14:30:53;4.40;;;1.70;;
11151;SDS011;5630;49.342;10.802;2022-10-16T14:33:22;1.50;;;1.40;;
11151;SDS011;5630;49.342;10.802;2022-10-16T14:35:59;4.23;;;1.60;;
11151;SDS011;5630;49.342;10.802;2022-10-16T14:38:27;2.23;;;1.50;;
11151;SDS011;5630;49.342;10.802;2022-10-16T14:40:52;9.73;;;1.90;;
11151;SDS011;5630;49.342;10.802;2022-10-16T14:43:23;6.60;;;1.73;;
11151;SDS011;5630;49.342;10.802;2022-10-16T14:45:57;3.80;;;1.50;;
11151;SDS011;5630;49.342;10.802;2022-10-16T14:48:23;6.00;;;1.67;;
11151;SDS011;5630;49.342;10.802;2022-10-16T14:50:49;2.83;;;1.70;;
11151;SDS011;5630;49.342;10.802;2022-10-16T14:53:15;3.90;;;1.40;;
11151;SDS011;5630;49.342;10.802;2022-10-16T14:55:41;4.97;;;1.60;;
11151;SDS011;5630;49.342;10.802;2022-10-16T14:58:15;4.87;;;1.43;;
11151;SDS011;5630;49.342;10.802;2022-10-16T15:00:42;5.17;;;1.80;;
11151;SDS011;5630;49.342;10.802;2022-10-16T15:03:08;3.53;;;1.70;;
11151;SDS011;5630;49.342;10.802;2022-10-16T15:05:34;7.03;;;1.60;;
11151;SDS011;5630;49.342;10.802;2022-10-16T15:08:00;4.37;;;1.57;;
11151;SDS011;5630;49.342;10.802;2022-10-16T15:10:26;2.60;;;1.70;;
11151;SDS011;5630;49.342;10.802;2022-10-16T15:12:53;5.00;;;1.80;;
11151;SDS011;5630;49.342;10.802;2022-10-16T15:17:50;3.53;;;1.80;;
11151;SDS011;5630;49.342;10.802;2022-10-16T15:20:29;1.87;;;1.50;;
11151;SDS011;5630;49.342;10.802;2022-10-16T15:22:58;3.60;;;1.80;;
11151;SDS011;5630;49.342;10.802;2022-10-16T15:25:45;1.97;;;1.50;;
11151;SDS011;5630;49.342;10.802;2022-10-16T15:28:13;3.10;;;1.77;;
11151;SDS011;5630;49.342;10.802;2022-10-16T15:30:40;5.20;;;1.77;;
11151;SDS011;5630;49.342;10.802;2022-10-16T15:33:10;7.87;;;2.00;;
11151;SDS011;5630;49.342;10.802;2022-10-16T15:35:41;3.17;;;1.63;;
11151;SDS011;5630;49.342;10.802;2022-10-16T15:38:09;2.87;;;1.60;;
11151;SDS011;5630;49.342;10.802;2022-10-16T15:40:37;4.17;;;1.83;;
11151;SDS011;5630;49.342;10.802;2022-10-16T15:43:03;4.13;;;1.80;;
11151;SDS011;5630;49.342;10.802;2022-10-16T15:45:29;2.77;;;1.80;;
11151;SDS011;5630;49.342;10.802;2022-10-16T15:47:54;4.80;;;1.70;;
11151;SDS011;5630;49.342;10.802;2022-10-16T15:50:20;4.50;;;1.40;;
11151;SDS011;5630;49.342;10.802;2022-10-16T15:52:45;4.90;;;1.60;;
11151;SDS011;5630;49.342;10.802;2022-10-16T15:55:12;8.03;;;1.93;;
11151;SDS011;5630;49.342;10.802;2022-10-16T15:57:38;7.87;;;2.20;;
11151;SDS011;5630;49.342;10.802;2022-10-16T16:00:07;5.50;;;1.90;;
11151;SDS011;5630;49.342;10.802;2022-10-16T16:02:33;2.20;;;1.60;;
11151;SDS011;5630;49.342;10.802;2022-10-16T16:04:59;5.50;;;1.57;;
11151;SDS011;5630;49.342;10.802;2022-10-16T16:07:25;3.50;;;1.70;;
11151;SDS011;5630;49.342;10.802;2022-10-16T16:09:52;3.43;;;1.67;;
11151;SDS011;5630;49.342;10.802;2022-10-16T16:12:18;4.87;;;1.93;;
11151;SDS011;5630;49.342;10.802;2022-10-16T16:14:43;2.70;;;1.70;;
11151;SDS011;5630;49.342;10.802;2022-10-16T16:17:11;6.23;;;1.87;;
11151;SDS011;5630;49.342;10.802;2022-10-16T16:19:36;4.23;;;1.80;;
11151;SDS011;5630;49.342;10.802;2022-10-16T16:22:02;4.33;;;1.73;;
11151;SDS011;5630;49.342;10.802;2022-10-16T16:24:27;6.17;;;2.10;;
11151;SDS011;5630;49.342;10.802;2022-10-16T16:26:53;3.30;;;1.67;;
11151;SDS011;5630;49.342;10.802;2022-10-16T16:29:19;5.67;;;1.80;;
11151;SDS011;5630;49.342;10.802;2022-10-16T16:31:45;7.40;;;1.73;;
11151;SDS011;5630;49.342;10.802;2022-10-16T16:34:12;5.67;;;1.47;;
11151;SDS011;5630;49.342;10.802;2022-10-16T16:36:38;2.63;;;1.60;;
11151;SDS011;5630;49.342;10.802;2022-10-16T16:39:05;3.73;;;1.80;;
11151;SDS011;5630;49.342;10.802;2022-10-16T16:41:31;1.90;;;1.70;;
11151;SDS011;5630;49.342;10.802;2022-10-16T16:44:01;7.13;;;1.90;;
11151;SDS011;5630;49.342;10.802;2022-10-16T16:46:28;3.93;;;1.87;;